Terminal Aerodrome Forecast
Issued by NWS

Home | Current Version | Previous Version | Text Only | Print | Product List | Glossary On
Versions: 1 2 3 4 5 6 7 8 9 10 11 12 13 14 15 16 17 18 19 20 21 22 23 24
000
FTUS42 KGSP 190803 AAA
TAFGMU
TAF AMD
KGMU 190803Z 1908/2006 09004KT P6SM VCSH BKN004 OVC035
      TEMPO 1909/1913 5SM -SHRA BR SCT004 OVC030
     FM191300 10010KT 2SM SHRA BR VCTS OVC003CB
     FM191900 15008KT 1 1/2SM SHRA BR VCTS OVC003CB
     FM192100 19009G19KT 3SM SHRA BR VCTS OVC003CB
     FM192300 21009G19KT 4SM SHRA BR OVC008 PROB30 1923/2004 2SM
      TSRA OVC008CB
     FM200400 21010G20KT 6SM BR OVC008=

USA.gov is the U.S. government's official web portal to all federal, state and local government web resources and services.